createdAt,value
2022-11-14T00:00:03.251Z,3.82
2022-11-14T00:02:31.572Z,3.78
2022-11-14T00:04:59.196Z,3.75
2022-11-14T00:07:26.883Z,3.72
2022-11-14T00:09:54.876Z,3.69
2022-11-14T00:12:22.436Z,3.66
2022-11-14T00:14:52.023Z,3.64
2022-11-14T00:17:19.650Z,3.65
2022-11-14T00:19:47.213Z,3.64
2022-11-14T00:22:15.126Z,3.63
2022-11-14T00:24:43.200Z,3.63
2022-11-14T00:27:10.775Z,3.64
2022-11-14T00:29:38.690Z,3.64
2022-11-14T00:32:06.295Z,3.64
2022-11-14T00:34:34.259Z,3.61
2022-11-14T00:37:01.828Z,3.52
2022-11-14T00:39:31.019Z,3.45
2022-11-14T00:41:58.578Z,3.41
2022-11-14T00:44:26.125Z,3.39
2022-11-14T00:46:54.147Z,3.36
2022-11-14T00:49:21.763Z,3.33
2022-11-14T00:51:51.860Z,3.32
2022-11-14T00:54:19.446Z,3.30
2022-11-14T00:56:46.986Z,3.27
2022-11-14T00:59:14.935Z,3.24
2022-11-14T01:01:42.523Z,3.23
2022-11-14T01:04:11.495Z,3.21
2022-11-14T01:06:39.044Z,3.19
2022-11-14T01:09:06.664Z,3.15
2022-11-14T01:11:34.642Z,3.12
2022-11-14T01:14:02.193Z,3.10
2022-11-14T01:16:30.554Z,3.09
2022-11-14T01:18:58.123Z,3.10
2022-11-14T01:21:25.674Z,3.07
2022-11-14T01:23:53.672Z,3.06
2022-11-14T01:26:21.252Z,3.05
2022-11-14T01:28:53.907Z,3.03
2022-11-14T01:31:21.504Z,3.02
2022-11-14T01:33:49.059Z,3.01
2022-11-14T01:36:17.026Z,2.96
2022-11-14T01:38:44.649Z,2.90
2022-11-14T01:41:12.264Z,2.85
2022-11-14T01:43:39.794Z,2.81
2022-11-14T01:46:07.365Z,2.77
2022-11-14T01:48:35.313Z,2.72
2022-11-14T01:51:03.177Z,2.65
2022-11-14T01:53:32.585Z,2.62
2022-11-14T01:56:00.109Z,2.59
2022-11-14T01:58:27.901Z,2.57
2022-11-14T02:00:56.179Z,2.55
2022-11-14T02:03:23.752Z,2.54
2022-11-14T02:05:51.362Z,2.55
2022-11-14T02:08:18.944Z,2.56
2022-11-14T02:10:46.482Z,2.59
2022-11-14T02:13:14.814Z,2.59
2022-11-14T02:15:42.478Z,2.60
2022-11-14T02:18:12.502Z,2.59
2022-11-14T02:20:43.357Z,2.58
2022-11-14T02:23:10.986Z,2.60
2022-11-14T02:25:38.920Z,2.61
2022-11-14T02:28:06.510Z,2.64
2022-11-14T02:30:34.109Z,2.65
2022-11-14T02:33:17.067Z,2.65
2022-11-14T02:35:45.317Z,2.67
2022-11-14T02:38:13.325Z,2.65
2022-11-14T02:40:41.546Z,2.60
2022-11-14T02:43:09.128Z,2.55
2022-11-14T02:45:36.679Z,2.48
2022-11-14T02:48:04.251Z,2.45
2022-11-14T02:50:32.059Z,2.42
2022-11-14T02:52:59.590Z,2.39
2022-11-14T02:55:27.584Z,2.37
2022-11-14T02:57:55.181Z,2.34
2022-11-14T03:00:23.200Z,2.32
2022-11-14T03:02:50.780Z,2.29
2022-11-14T03:05:18.398Z,2.27
2022-11-14T03:07:45.961Z,2.23
2022-11-14T03:10:14.089Z,2.18
2022-11-14T03:12:42.041Z,2.15
2022-11-14T03:15:09.552Z,2.11
2022-11-14T03:17:37.553Z,2.09
2022-11-14T03:20:05.621Z,2.08
2022-11-14T03:22:33.154Z,2.09
2022-11-14T03:25:01.090Z,2.08
2022-11-14T03:27:28.683Z,2.07
2022-11-14T03:29:58.130Z,2.08
2022-11-14T03:32:25.662Z,2.09
2022-11-14T03:34:53.263Z,2.11
2022-11-14T03:37:21.261Z,2.11
2022-11-14T03:39:48.776Z,2.12
2022-11-14T03:42:17.407Z,2.12
2022-11-14T03:44:44.958Z,2.14
2022-11-14T03:47:12.523Z,2.14
2022-11-14T03:49:40.952Z,2.18
2022-11-14T03:52:08.527Z,2.20
2022-11-14T03:54:36.763Z,2.16
2022-11-14T03:57:04.363Z,2.15
2022-11-14T03:59:31.912Z,2.14
2022-11-14T04:02:00.150Z,2.12
2022-11-14T04:04:27.753Z,2.09
2022-11-14T04:06:56.985Z,2.08
2022-11-14T04:09:24.597Z,2.06
2022-11-14T04:11:52.156Z,2.04
2022-11-14T04:14:20.127Z,2.00
2022-11-14T04:16:47.659Z,1.96
2022-11-14T04:19:16.254Z,1.96
2022-11-14T04:21:43.844Z,1.93
2022-11-14T04:24:11.753Z,1.92
2022-11-14T04:26:39.662Z,1.90
2022-11-14T04:29:07.193Z,1.90
2022-11-14T04:31:36.232Z,1.87
2022-11-14T04:34:03.855Z,1.86
2022-11-14T04:36:31.385Z,1.83
2022-11-14T04:38:59.471Z,1.78
2022-11-14T04:41:27.041Z,1.76
2022-11-14T04:43:55.768Z,1.74
2022-11-14T04:46:23.731Z,1.73
2022-11-14T04:48:51.301Z,1.75
2022-11-14T04:51:18.862Z,1.75
2022-11-14T04:53:46.443Z,1.77
2022-11-14T04:56:15.977Z,1.80
2022-11-14T04:58:44.126Z,1.86
2022-11-14T05:01:11.789Z,1.90
2022-11-14T05:03:39.769Z,1.93
2022-11-14T05:06:07.302Z,1.91
2022-11-14T05:08:35.955Z,1.89
2022-11-14T05:11:03.556Z,1.85
2022-11-14T05:13:31.100Z,1.82
2022-11-14T05:15:59.056Z,1.81
2022-11-14T05:18:26.641Z,1.80
2022-11-14T05:20:54.234Z,1.80
2022-11-14T05:23:21.809Z,1.79
2022-11-14T05:25:49.422Z,1.80
2022-11-14T05:28:17.681Z,1.85
2022-11-14T05:30:46.853Z,1.98
2022-11-14T05:33:15.993Z,2.21
2022-11-14T05:35:43.547Z,2.47
2022-11-14T05:38:11.152Z,2.68
2022-11-14T05:40:38.748Z,2.83
2022-11-14T05:43:07.118Z,2.94
2022-11-14T05:45:34.715Z,3.05
2022-11-14T05:48:02.306Z,3.15
2022-11-14T05:50:30.201Z,3.24
2022-11-14T05:52:58.179Z,3.31
2022-11-14T05:55:25.764Z,3.34
2022-11-14T05:57:53.625Z,3.36
2022-11-14T06:00:21.267Z,3.39
2022-11-14T06:02:49.009Z,3.42
2022-11-14T06:05:17.006Z,3.46
2022-11-14T06:07:44.612Z,3.49
2022-11-14T06:10:13.643Z,3.51
2022-11-14T06:12:41.700Z,3.50
2022-11-14T06:15:09.314Z,3.43
2022-11-14T06:17:37.280Z,3.33
2022-11-14T06:20:04.886Z,3.21
2022-11-14T06:22:33.418Z,3.08
2022-11-14T06:25:01.178Z,2.97
2022-11-14T06:27:28.746Z,2.87
2022-11-14T06:29:56.779Z,2.80
2022-11-14T06:32:24.445Z,2.75
2022-11-14T06:34:52.413Z,2.73
2022-11-14T06:37:20.025Z,2.73
2022-11-14T06:39:47.710Z,2.73
2022-11-14T06:42:16.045Z,2.74
2022-11-14T06:44:43.685Z,2.73
2022-11-14T06:47:11.460Z,2.71
2022-11-14T06:49:40.628Z,2.71
2022-11-14T06:52:08.586Z,2.71
2022-11-14T06:54:36.741Z,2.74
2022-11-14T06:57:04.809Z,2.79
2022-11-14T06:59:35.984Z,2.87
2022-11-14T07:02:03.697Z,2.92
2022-11-14T07:04:31.267Z,2.94
2022-11-14T07:06:59.297Z,3.00
2022-11-14T07:09:26.968Z,3.06
2022-11-14T07:11:54.558Z,3.13
2022-11-14T07:14:22.295Z,3.23
2022-11-14T07:16:49.896Z,3.29
2022-11-14T07:19:18.328Z,3.37
2022-11-14T07:21:46.061Z,3.45
2022-11-14T07:24:13.686Z,3.53
2022-11-14T07:26:41.305Z,3.63
2022-11-14T07:29:09.061Z,3.69
2022-11-14T07:31:36.915Z,3.72
2022-11-14T07:34:06.142Z,3.75
2022-11-14T07:36:33.818Z,3.77
2022-11-14T07:39:01.458Z,3.79
2022-11-14T07:41:29.097Z,3.83
2022-11-14T07:43:57.746Z,3.91
2022-11-14T07:46:25.347Z,4.01
2022-11-14T07:48:53.908Z,4.09
2022-11-14T07:51:21.673Z,4.17
2022-11-14T07:53:49.389Z,4.27
2022-11-14T07:56:17.724Z,4.38
2022-11-14T07:58:45.410Z,4.50
2022-11-14T08:01:13.551Z,4.59
2022-11-14T08:03:45.594Z,4.69
2022-11-14T08:06:13.962Z,4.81
2022-11-14T08:08:42.080Z,4.90
2022-11-14T08:11:09.849Z,5.05
2022-11-14T08:13:39.532Z,5.24
2022-11-14T08:16:12.379Z,5.41
2022-11-14T08:18:41.385Z,5.56
2022-11-14T08:21:09.473Z,5.68
2022-11-14T08:23:37.184Z,5.79
2022-11-14T08:26:06.205Z,5.87
2022-11-14T08:28:34.080Z,5.97
2022-11-14T08:31:02.600Z,6.08
2022-11-14T08:33:30.787Z,6.24
2022-11-14T08:35:58.450Z,6.38
2022-11-14T08:38:26.978Z,6.53
2022-11-14T08:40:54.824Z,6.68
2022-11-14T08:43:23.013Z,6.81
2022-11-14T08:45:51.257Z,6.95
2022-11-14T08:48:19.096Z,7.06
2022-11-14T08:50:49.249Z,7.16
2022-11-14T08:53:16.975Z,7.27
2022-11-14T08:55:44.698Z,7.38
2022-11-14T08:58:12.741Z,7.48
2022-11-14T09:00:40.448Z,7.55
2022-11-14T09:03:09.659Z,7.62
2022-11-14T09:05:37.958Z,7.70
2022-11-14T09:08:05.697Z,7.78
2022-11-14T09:10:34.240Z,7.89
2022-11-14T09:13:02.078Z,8.01
2022-11-14T09:15:34.057Z,8.11
2022-11-14T09:18:01.736Z,8.20
2022-11-14T09:20:35.089Z,8.29
2022-11-14T09:23:05.506Z,8.39
2022-11-14T09:25:33.195Z,8.49
2022-11-14T09:28:00.985Z,8.58
2022-11-14T09:30:28.953Z,8.68
2022-11-14T09:32:56.710Z,8.80
2022-11-14T09:35:24.825Z,8.91
2022-11-14T09:37:53.110Z,9.04
2022-11-14T09:40:20.754Z,9.13
2022-11-14T09:42:48.404Z,9.26
2022-11-14T09:45:16.215Z,9.38
2022-11-14T09:47:44.650Z,9.46
2022-11-14T09:50:15.108Z,9.50
2022-11-14T09:52:46.304Z,9.56
2022-11-14T09:55:14.154Z,9.62
2022-11-14T09:57:41.786Z,9.69
2022-11-14T10:00:10.336Z,9.73
2022-11-14T10:02:41.364Z,9.80
2022-11-14T10:05:09.138Z,9.87
2022-11-14T10:07:36.982Z,9.92
2022-11-14T10:10:04.715Z,9.98
2022-11-14T10:12:32.357Z,10.00
2022-11-14T10:15:01.063Z,9.99
2022-11-14T10:17:28.801Z,9.93
2022-11-14T10:19:56.611Z,9.93
2022-11-14T10:22:24.512Z,9.97
2022-11-14T10:24:52.641Z,10.01
2022-11-14T10:27:21.176Z,10.05
2022-11-14T10:29:49.407Z,10.05
2022-11-14T10:32:17.252Z,10.04
2022-11-14T10:34:45.085Z,10.08
2022-11-14T10:37:13.274Z,10.12
2022-11-14T10:39:43.200Z,10.19
2022-11-14T10:42:10.944Z,10.20
2022-11-14T10:44:38.898Z,10.15
2022-11-14T10:47:06.638Z,10.09
2022-11-14T10:49:36.780Z,10.06
2022-11-14T10:52:10.046Z,10.10
2022-11-14T10:54:37.811Z,10.47
2022-11-14T10:57:05.646Z,11.14
2022-11-14T10:59:33.619Z,11.37
2022-11-14T11:02:01.758Z,11.38
2022-11-14T11:04:31.898Z,11.32
2022-11-14T11:06:59.799Z,11.34
2022-11-14T11:09:45.977Z,11.45
2022-11-14T11:12:14.692Z,11.55
2022-11-14T11:14:44.295Z,11.54
2022-11-14T11:17:12.124Z,11.51
2022-11-14T11:19:40.105Z,11.52
2022-11-14T11:22:07.920Z,11.48
2022-11-14T11:24:36.351Z,11.47
2022-11-14T11:27:04.936Z,11.45
2022-11-14T11:29:32.791Z,11.42
2022-11-14T11:32:00.720Z,11.41
2022-11-14T11:34:29.137Z,11.48
2022-11-14T11:36:57.321Z,11.54
2022-11-14T11:39:27.858Z,11.66
2022-11-14T11:42:09.292Z,11.77
2022-11-14T11:44:38.316Z,11.86
2022-11-14T11:47:06.713Z,11.93
2022-11-14T11:49:34.637Z,11.95
2022-11-14T11:52:02.471Z,12.01
2022-11-14T11:54:31.060Z,12.27
2022-11-14T11:57:00.111Z,12.46
2022-11-14T11:59:28.248Z,12.51
2022-11-14T12:01:58.405Z,12.39
2022-11-14T12:04:26.206Z,12.23
2022-11-14T12:06:54.114Z,12.14
2022-11-14T12:09:22.264Z,12.09
2022-11-14T12:11:50.880Z,12.06
2022-11-14T12:14:18.543Z,12.09
2022-11-14T12:16:46.945Z,12.12
2022-11-14T12:19:14.756Z,12.18
2022-11-14T12:21:43.051Z,12.19
2022-11-14T12:24:11.754Z,12.18
2022-11-14T12:26:39.609Z,12.16
2022-11-14T12:29:07.481Z,12.20
2022-11-14T12:31:35.337Z,12.32
2022-11-14T12:34:03.183Z,12.39
2022-11-14T12:36:31.239Z,12.46
2022-11-14T12:39:00.369Z,12.45
2022-11-14T12:41:28.293Z,12.40
2022-11-14T12:43:56.053Z,12.33
2022-11-14T12:46:24.032Z,12.24
2022-11-14T12:48:51.882Z,12.15
2022-11-14T12:51:19.889Z,12.09
2022-11-14T12:53:47.899Z,12.01
2022-11-14T12:56:15.899Z,11.96
2022-11-14T12:58:44.188Z,11.91
2022-11-14T13:01:13.117Z,11.93
2022-11-14T13:03:41.022Z,12.05
2022-11-14T13:06:08.838Z,12.23
2022-11-14T13:08:36.775Z,12.46
2022-11-14T13:11:04.674Z,12.76
2022-11-14T13:13:50.135Z,12.91
2022-11-14T13:16:35.274Z,13.01
2022-11-14T13:19:21.099Z,13.08
2022-11-14T13:21:50.702Z,13.31
2022-11-14T13:24:19.109Z,13.55
2022-11-14T13:26:47.168Z,13.76
2022-11-14T13:29:14.909Z,13.87
2022-11-14T13:31:42.843Z,13.87
2022-11-14T13:34:11.787Z,13.83
2022-11-14T13:36:40.047Z,13.82
2022-11-14T13:39:07.931Z,13.82
2022-11-14T13:41:46.968Z,13.84
2022-11-14T13:44:15.353Z,13.72
2022-11-14T13:46:43.785Z,13.53
2022-11-14T13:49:11.834Z,13.34
2022-11-14T13:51:44.095Z,13.23
2022-11-14T13:54:17.155Z,13.34
2022-11-14T13:56:47.067Z,13.52
2022-11-14T13:59:15.710Z,13.75
2022-11-14T14:01:43.920Z,13.93
2022-11-14T14:04:11.815Z,13.90
2022-11-14T14:06:39.965Z,13.64
2022-11-14T14:09:10.441Z,13.30
2022-11-14T14:11:42.849Z,13.06
2022-11-14T14:14:11.227Z,12.84
2022-11-14T14:16:39.153Z,12.69
2022-11-14T14:19:06.964Z,12.57
2022-11-14T14:21:35.899Z,12.49
2022-11-14T14:24:04.223Z,12.38
2022-11-14T14:26:32.131Z,12.29
2022-11-14T14:29:04.894Z,12.21
2022-11-14T14:31:33.830Z,12.08
2022-11-14T14:34:04.508Z,11.99
2022-11-14T14:36:32.387Z,11.88
2022-11-14T14:39:00.211Z,11.76
2022-11-14T14:41:28.502Z,11.66
2022-11-14T14:43:56.379Z,11.56
2022-11-14T14:46:25.037Z,11.45
2022-11-14T14:48:53.023Z,11.37
2022-11-14T14:51:20.940Z,11.29
2022-11-14T14:53:48.784Z,11.20
2022-11-14T14:56:16.796Z,11.14
2022-11-14T14:58:45.100Z,11.07
2022-11-14T15:01:13.151Z,11.01
2022-11-14T15:03:41.207Z,10.97
2022-11-14T15:06:13.289Z,10.92
2022-11-14T15:08:41.402Z,10.88
2022-11-14T15:11:09.745Z,10.83
2022-11-14T15:13:38.959Z,10.78
2022-11-14T15:16:07.074Z,10.75
2022-11-14T15:18:35.054Z,10.72
2022-11-14T15:21:03.077Z,10.68
2022-11-14T15:23:32.304Z,10.64
2022-11-14T15:26:00.024Z,10.62
2022-11-14T15:28:28.542Z,10.57
2022-11-14T15:30:56.732Z,10.55
2022-11-14T15:33:24.697Z,10.52
2022-11-14T15:35:53.054Z,10.50
2022-11-14T15:41:09.034Z,10.45
2022-11-14T15:43:37.007Z,10.41
2022-11-14T15:46:09.136Z,10.38
2022-11-14T15:48:39.604Z,10.35
2022-11-14T15:51:07.506Z,10.32
2022-11-14T15:53:35.413Z,10.30
2022-11-14T15:56:03.392Z,10.28
2022-11-14T15:58:33.726Z,10.25
2022-11-14T16:01:01.720Z,10.24
2022-11-14T16:03:30.151Z,10.23
2022-11-14T16:05:58.250Z,10.22
2022-11-14T16:08:26.176Z,10.21
2022-11-14T16:10:55.957Z,10.20
2022-11-14T16:13:23.890Z,10.20
2022-11-14T16:15:51.877Z,10.19
2022-11-14T16:18:19.857Z,10.17
2022-11-14T16:20:47.741Z,10.18
2022-11-14T16:23:16.601Z,10.17
2022-11-14T16:25:44.590Z,10.15
2022-11-14T16:28:12.506Z,10.16
2022-11-14T16:30:40.624Z,10.15
2022-11-14T16:33:08.942Z,10.16
2022-11-14T16:35:37.573Z,10.16
2022-11-14T16:38:05.597Z,10.15
2022-11-14T16:40:33.716Z,10.16
2022-11-14T16:43:01.559Z,10.17
2022-11-14T16:45:29.365Z,10.16
2022-11-14T16:47:59.345Z,10.16
2022-11-14T16:50:27.292Z,10.17
2022-11-14T16:52:55.225Z,10.17
2022-11-14T16:55:23.626Z,10.17
2022-11-14T16:57:51.731Z,10.16
2022-11-14T17:00:20.105Z,10.16
2022-11-14T17:02:48.357Z,10.14
2022-11-14T17:05:16.678Z,10.13
2022-11-14T17:07:44.602Z,10.13
2022-11-14T17:10:12.681Z,10.13
2022-11-14T17:12:41.099Z,10.11
2022-11-14T17:15:08.917Z,10.10
2022-11-14T17:17:37.340Z,10.09
2022-11-14T17:20:05.244Z,10.09
2022-11-14T17:22:33.127Z,10.10
2022-11-14T17:25:03.677Z,10.11
2022-11-14T17:27:31.590Z,10.13
2022-11-14T17:29:59.553Z,10.20
2022-11-14T17:32:27.606Z,10.24
2022-11-14T17:34:55.425Z,10.29
2022-11-14T17:37:24.907Z,10.34
2022-11-14T17:39:52.889Z,10.39
2022-11-14T17:42:20.699Z,10.43
2022-11-14T17:44:48.629Z,10.46
2022-11-14T17:47:16.430Z,10.50
2022-11-14T17:49:44.335Z,10.51
2022-11-14T17:52:12.180Z,10.52
2022-11-14T17:54:39.979Z,10.54
2022-11-14T17:57:07.863Z,10.54
2022-11-14T17:59:36.798Z,10.53
2022-11-14T18:02:05.555Z,10.52
2022-11-14T18:04:33.436Z,10.54
2022-11-14T18:07:01.454Z,10.52
2022-11-14T18:09:29.907Z,10.52
2022-11-14T18:11:57.716Z,10.53
2022-11-14T18:14:27.743Z,10.52
2022-11-14T18:17:12.404Z,10.51
2022-11-14T18:19:41.111Z,10.51
2022-11-14T18:22:09.603Z,10.51
2022-11-14T18:24:38.067Z,10.52
2022-11-14T18:27:05.950Z,10.54
2022-11-14T18:29:34.076Z,10.57
2022-11-14T18:32:02.079Z,10.57
2022-11-14T18:34:30.006Z,10.57
2022-11-14T18:37:00.018Z,10.57
2022-11-14T18:39:29.269Z,10.58
2022-11-14T18:41:57.620Z,10.58
2022-11-14T18:44:25.936Z,10.59
2022-11-14T18:46:53.831Z,10.59
2022-11-14T18:49:24.425Z,10.60
2022-11-14T18:51:52.445Z,10.58
2022-11-14T18:54:20.453Z,10.58
2022-11-14T18:56:48.262Z,10.57
2022-11-14T18:59:16.402Z,10.58
2022-11-14T19:01:44.780Z,10.57
2022-11-14T19:04:12.840Z,10.57
2022-11-14T19:06:41.410Z,10.58
2022-11-14T19:09:11.375Z,10.57
2022-11-14T19:11:57.681Z,10.56
2022-11-14T19:14:27.506Z,10.56
2022-11-14T19:16:55.340Z,10.54
2022-11-14T19:19:23.451Z,10.53
2022-11-14T19:21:51.601Z,10.51
2022-11-14T19:24:19.734Z,10.49
2022-11-14T19:26:51.357Z,10.48
2022-11-14T19:29:19.228Z,10.46
2022-11-14T19:31:47.067Z,10.43
2022-11-14T19:34:15.133Z,10.40
2022-11-14T19:36:59.324Z,10.37
2022-11-14T19:39:29.779Z,10.34
2022-11-14T19:41:57.685Z,10.31
2022-11-14T19:44:25.696Z,10.27
2022-11-14T19:46:54.670Z,10.21
2022-11-14T19:49:22.560Z,10.13
2022-11-14T19:51:53.130Z,10.01
2022-11-14T19:54:21.277Z,9.90
2022-11-14T19:56:49.147Z,9.78
2022-11-14T19:59:22.935Z,9.66
2022-11-14T20:01:55.745Z,9.57
2022-11-14T20:04:23.839Z,9.47
2022-11-14T20:06:51.812Z,9.35
2022-11-14T20:09:20.066Z,9.27
2022-11-14T20:11:47.923Z,9.17
2022-11-14T20:14:17.676Z,9.10
2022-11-14T20:16:46.267Z,9.00
2022-11-14T20:19:14.549Z,8.92
2022-11-14T20:21:43.477Z,8.84
2022-11-14T20:24:11.480Z,8.76
2022-11-14T20:26:40.378Z,8.72
2022-11-14T20:29:08.817Z,8.66
2022-11-14T20:31:36.638Z,8.59
2022-11-14T20:34:04.630Z,8.57
2022-11-14T20:36:56.537Z,8.55
2022-11-14T20:39:20.665Z,8.54
2022-11-14T20:41:48.574Z,8.53
2022-11-14T20:44:16.951Z,8.51
2022-11-14T20:46:44.978Z,8.50
2022-11-14T20:49:13.485Z,8.51
2022-11-14T20:51:45.186Z,8.51
2022-11-14T20:54:13.136Z,8.49
2022-11-14T20:56:41.495Z,8.48
2022-11-14T20:59:09.595Z,8.46
2022-11-14T21:01:43.200Z,8.43
2022-11-14T21:04:14.074Z,8.42
2022-11-14T21:06:42.423Z,8.41
2022-11-14T21:09:12.322Z,8.41
2022-11-14T21:11:40.145Z,8.41
2022-11-14T21:14:09.480Z,8.41
2022-11-14T21:16:37.516Z,8.42
2022-11-14T21:19:06.063Z,8.41
2022-11-14T21:21:34.239Z,8.38
2022-11-14T21:24:02.073Z,8.37
2022-11-14T21:26:29.906Z,8.36
2022-11-14T21:28:58.904Z,8.37
2022-11-14T21:31:27.515Z,8.37
2022-11-14T21:33:55.454Z,8.34
2022-11-14T21:36:43.819Z,8.34
2022-11-14T21:39:16.377Z,8.32
2022-11-14T21:41:45.006Z,8.30
2022-11-14T21:44:13.191Z,8.29
2022-11-14T21:46:41.426Z,8.30
2022-11-14T21:49:09.337Z,8.33
2022-11-14T21:51:40.535Z,8.37
2022-11-14T21:54:09.005Z,8.46
2022-11-14T21:56:37.299Z,8.53
2022-11-14T21:59:15.896Z,8.66
2022-11-14T22:02:01.622Z,8.75
2022-11-14T22:04:30.135Z,8.82
2022-11-14T22:06:57.908Z,8.86
2022-11-14T22:09:25.869Z,8.90
2022-11-14T22:11:53.634Z,8.96
2022-11-14T22:14:21.421Z,9.02
2022-11-14T22:16:51.214Z,9.06
2022-11-14T22:19:20.433Z,9.07
2022-11-14T22:21:48.220Z,9.07
2022-11-14T22:24:16.159Z,9.07
2022-11-14T22:26:43.959Z,9.06
2022-11-14T22:29:12.246Z,9.03
2022-11-14T22:31:40.312Z,9.00
2022-11-14T22:34:08.578Z,8.99
2022-11-14T22:36:36.281Z,8.99
2022-11-14T22:39:04.186Z,9.06
2022-11-14T22:41:34.468Z,9.08
2022-11-14T22:44:02.249Z,9.11
2022-11-14T22:46:29.978Z,9.24
2022-11-14T22:48:58.428Z,9.41
2022-11-14T22:51:26.189Z,9.57
2022-11-14T22:53:54.398Z,9.76
2022-11-14T22:56:22.587Z,9.91
2022-11-14T22:58:50.337Z,10.04
2022-11-14T23:01:18.141Z,10.15
2022-11-14T23:03:45.952Z,10.26
2022-11-14T23:06:14.167Z,10.34
2022-11-14T23:08:42.064Z,10.43
2022-11-14T23:11:09.811Z,10.52
2022-11-14T23:13:37.437Z,10.59
2022-11-14T23:16:05.194Z,10.67
2022-11-14T23:18:38.274Z,10.71
2022-11-14T23:21:06.087Z,10.76
2022-11-14T23:23:33.891Z,10.81
2022-11-14T23:26:01.717Z,10.87
2022-11-14T23:28:29.406Z,10.92
2022-11-14T23:30:59.478Z,10.99
2022-11-14T23:33:27.074Z,11.06
2022-11-14T23:35:54.717Z,11.14
2022-11-14T23:38:22.323Z,11.21
2022-11-14T23:40:49.921Z,11.25
2022-11-14T23:43:18.091Z,11.30
2022-11-14T23:45:45.707Z,11.32
2022-11-14T23:48:13.396Z,11.36
2022-11-14T23:50:41.097Z,11.42
2022-11-14T23:53:08.723Z,11.49
2022-11-14T23:55:37.531Z,11.54
2022-11-14T23:58:05.333Z,11.61
